aviador You're here:

KMIC Decoded Metar

MNPLS/CRYSTAL in MN, USA
Report Time2018-05-25 19:53:00
UTC Time2018-05-25 20:49:57
Flight Rules vfr VFR
Wind230° at 10 Gusting to 19 kt
W.Decomp.*RWY 24: 9.8 kt HW 2.1 kt LCW
RWY 14: 0.3 kt HW 10.0 kt RCW
W.Rank230° ranks 29
Current wind is above 230° avg. (7.3)
Visibility9999 m
Phenomena:N/A
Clouds:N/A
Expected CloudBase > 6,000 ft AGL from Temp-Dew spread
CeilingNone
Temp31°C (ISA +18)
Dew Point16°C (40% RH)
Heat Index30.9°C
AAT29.3°C
QNH1006 hPa
Density Alt3,373 ft
Elevation869 ft
Report Wrong Elevation
Raw Report
KMIC 251953Z 23010G19KT 210V270 10SM CLR 31/16 A2970 RMK AO2 LTG
DSNT N SLP050 T03060156=

Extra information for KMIC:More info

Metar Taf Metar & Taf Last 4 Metars F.Rules Stats Wind Profile Meteogram Temp Stats Airport Information Weather charts Add Link Nearby VenuesMetar ALERT Operation Metar Decoded Social comments

AIRNAV info for KMIC